Time,TemperatureF,DewpointF,PressureIn,WindDirection,WindDirectionDegrees,WindSpeedMPH,WindSpeedGustMPH,Humidity,HourlyPrecipIn,Conditions,Clouds,dailyrainin,SolarRadiationWatts/m^2,SoftwareType,DateUTC
2013-02-06 00:11:00,67.0,61.0,30.37,NE,48,7.0,18.0,81,0.00,,,0.00,0.000000,,2013-02-06 10:11:00,
2013-02-06 00:21:00,67.0,61.0,30.37,NE,48,7.0,18.0,81,0.00,,,0.00,0.000000,,2013-02-06 10:21:00,
2013-02-06 00:31:00,67.0,61.0,30.37,NE,48,7.0,18.0,81,0.00,,,0.00,0.000000,,2013-02-06 10:31:00,
2013-02-06 00:41:00,67.0,61.0,30.37,NE,48,7.0,18.0,81,0.00,,,0.00,0.000000,,2013-02-06 10:41:00,
2013-02-06 00:51:00,67.0,61.0,30.37,NE,48,7.0,18.0,81,0.00,,,0.00,0.000000,,2013-02-06 10:51:00,
2013-02-06 01:22:00,68.0,63.0,30.35,NE,47,7.0,16.0,85,0.00,,,0.00,0.000000,,2013-02-06 11:22:00,
2013-02-06 01:32:00,68.0,63.0,30.35,NE,47,7.0,16.0,85,0.00,,,0.00,0.000000,,2013-02-06 11:32:00,
2013-02-06 01:42:00,68.0,63.0,30.35,NE,47,7.0,16.0,85,0.00,,,0.00,0.000000,,2013-02-06 11:42:00,
2013-02-06 01:52:00,68.0,63.0,30.35,NE,47,7.0,16.0,85,0.00,,,0.00,0.000000,,2013-02-06 11:52:00,
2013-02-06 02:12:00,68.0,63.0,30.34,ENE,60,10.0,19.0,84,0.00,,,0.00,0.000000,,2013-02-06 12:12:00,
2013-02-06 02:22:00,68.0,63.0,30.34,ENE,60,10.0,19.0,84,0.00,,,0.00,0.000000,,2013-02-06 12:22:00,
2013-02-06 02:32:00,68.0,63.0,30.34,ENE,60,10.0,19.0,84,0.00,,,0.00,0.000000,,2013-02-06 12:32:00,
2013-02-06 02:42:00,68.0,63.0,30.34,ENE,60,10.0,19.0,84,0.00,,,0.00,0.000000,,2013-02-06 12:42:00,
2013-02-06 02:52:00,68.0,63.0,30.34,ENE,60,10.0,19.0,84,0.00,,,0.00,0.000000,,2013-02-06 12:52:00,
2013-02-06 03:11:00,67.0,61.0,30.32,ENE,75,10.0,22.0,82,0.00,,,0.00,0.000000,,2013-02-06 13:11:00,
2013-02-06 03:21:00,67.0,61.0,30.32,ENE,75,10.0,22.0,82,0.00,,,0.00,0.000000,,2013-02-06 13:21:00,
2013-02-06 03:31:00,67.0,61.0,30.32,ENE,75,10.0,22.0,82,0.00,,,0.00,0.000000,,2013-02-06 13:31:00,
2013-02-06 03:42:00,67.0,61.0,30.32,ENE,75,10.0,22.0,82,0.00,,,0.00,0.000000,,2013-02-06 13:42:00,
2013-02-06 03:51:00,67.0,61.0,30.32,ENE,75,10.0,22.0,82,0.00,,,0.00,0.000000,,2013-02-06 13:51:00,
2013-02-06 04:21:00,65.0,62.0,30.31,North,10,9.0,23.0,89,0.02,,,0.02,0.000000,,2013-02-06 14:21:00,
2013-02-06 04:31:00,65.0,62.0,30.31,North,10,9.0,23.0,89,0.02,,,0.02,0.000000,,2013-02-06 14:31:00,
2013-02-06 04:41:00,65.0,62.0,30.31,North,10,9.0,23.0,89,0.02,,,0.02,0.000000,,2013-02-06 14:41:00,
2013-02-06 04:52:00,65.0,62.0,30.31,North,10,9.0,23.0,89,0.02,,,0.02,0.000000,,2013-02-06 14:52:00,
2013-02-06 05:11:00,66.0,62.0,30.31,East,88,8.0,18.0,87,0.00,,,0.02,0.000000,,2013-02-06 15:11:00,
2013-02-06 05:21:00,66.0,62.0,30.31,East,88,8.0,18.0,87,0.00,,,0.02,0.000000,,2013-02-06 15:21:00,
2013-02-06 05:31:00,66.0,62.0,30.31,East,88,8.0,18.0,87,0.00,,,0.02,0.000000,,2013-02-06 15:31:00,
2013-02-06 05:41:00,66.0,62.0,30.31,East,88,8.0,18.0,87,0.00,,,0.02,0.000000,,2013-02-06 15:41:00,
2013-02-06 05:51:00,66.0,62.0,30.31,East,88,8.0,18.0,87,0.00,,,0.02,0.000000,,2013-02-06 15:51:00,
2013-02-06 06:11:00,66.0,62.0,30.32,NNE,29,6.0,14.0,86,0.00,,,0.02,0.000000,,2013-02-06 16:11:00,
2013-02-06 06:21:00,66.0,62.0,30.32,NNE,29,6.0,14.0,86,0.00,,,0.02,0.000000,,2013-02-06 16:21:00,
2013-02-06 06:32:00,66.0,62.0,30.32,NNE,29,6.0,14.0,86,0.00,,,0.02,0.000000,,2013-02-06 16:32:00,
2013-02-06 06:41:00,66.0,62.0,30.32,NNE,29,6.0,14.0,86,0.00,,,0.02,0.000000,,2013-02-06 16:41:00,
2013-02-06 06:51:00,66.0,62.0,30.32,NNE,29,6.0,14.0,86,0.00,,,0.02,0.000000,,2013-02-06 16:51:00,
2013-02-06 07:11:00,67.0,63.0,30.33,ESE,102,12.0,20.0,87,0.00,,,0.02,0.000000,,2013-02-06 17:11:00,
2013-02-06 07:21:00,67.0,63.0,30.33,ESE,102,12.0,20.0,87,0.00,,,0.02,0.000000,,2013-02-06 17:21:00,
2013-02-06 07:32:00,67.0,63.0,30.33,ESE,102,12.0,20.0,87,0.00,,,0.02,0.000000,,2013-02-06 17:32:00,
2013-02-06 07:41:00,67.0,63.0,30.33,ESE,102,12.0,20.0,87,0.00,,,0.02,0.000000,,2013-02-06 17:41:00,
2013-02-06 07:52:00,67.0,63.0,30.33,ESE,102,12.0,20.0,87,0.00,,,0.02,0.000000,,2013-02-06 17:52:00,
2013-02-06 08:11:00,70.0,64.0,30.35,East,80,11.0,23.0,82,0.00,,,0.02,0.000000,,2013-02-06 18:11:00,
2013-02-06 08:22:00,70.0,64.0,30.35,East,80,11.0,23.0,82,0.00,,,0.02,0.000000,,2013-02-06 18:22:00,
2013-02-06 08:32:00,70.0,64.0,30.35,East,80,11.0,23.0,82,0.00,,,0.02,0.000000,,2013-02-06 18:32:00,
2013-02-06 08:41:00,70.0,64.0,30.35,East,80,11.0,23.0,82,0.00,,,0.02,0.000000,,2013-02-06 18:41:00,
2013-02-06 08:52:00,70.0,64.0,30.35,East,80,11.0,23.0,82,0.00,,,0.02,0.000000,,2013-02-06 18:52:00,
2013-02-06 09:21:00,72.0,64.0,30.36,East,94,16.0,26.0,76,0.00,,,0.02,46.000000,,2013-02-06 19:21:00,
2013-02-06 09:31:00,72.0,64.0,30.36,East,94,16.0,26.0,76,0.00,,,0.02,46.000000,,2013-02-06 19:31:00,
2013-02-06 09:41:00,72.0,64.0,30.36,East,94,16.0,26.0,76,0.00,,,0.02,46.000000,,2013-02-06 19:41:00,
2013-02-06 09:52:00,72.0,64.0,30.36,East,94,16.0,26.0,76,0.00,,,0.02,46.000000,,2013-02-06 19:52:00,
2013-02-06 10:11:00,74.0,67.0,30.38,East,81,18.0,28.0,78,0.00,,,0.02,245.000000,,2013-02-06 20:11:00,
2013-02-06 10:21:00,74.0,67.0,30.38,East,81,18.0,28.0,78,0.00,,,0.02,245.000000,,2013-02-06 20:21:00,
2013-02-06 10:31:00,74.0,67.0,30.38,East,81,18.0,28.0,78,0.00,,,0.02,245.000000,,2013-02-06 20:31:00,
2013-02-06 10:41:00,74.0,67.0,30.38,East,81,18.0,28.0,78,0.00,,,0.02,245.000000,,2013-02-06 20:41:00,
2013-02-06 10:52:00,74.0,67.0,30.38,East,81,18.0,28.0,78,0.00,,,0.02,245.000000,,2013-02-06 20:52:00,
2013-02-06 11:11:00,73.0,65.0,30.38,ENE,60,13.0,28.0,75,0.00,,,0.02,493.000000,,2013-02-06 21:11:00,
2013-02-06 11:21:00,73.0,65.0,30.38,ENE,60,13.0,28.0,75,0.00,,,0.02,493.000000,,2013-02-06 21:21:00,
2013-02-06 11:31:00,73.0,65.0,30.38,ENE,60,13.0,28.0,75,0.00,,,0.02,493.000000,,2013-02-06 21:31:00,
2013-02-06 11:41:00,73.0,65.0,30.38,ENE,60,13.0,28.0,75,0.00,,,0.02,493.000000,,2013-02-06 21:41:00,
2013-02-06 11:51:00,73.0,65.0,30.38,ENE,60,13.0,28.0,75,0.00,,,0.02,493.000000,,2013-02-06 21:51:00,
2013-02-06 12:11:00,72.0,64.0,30.36,ENE,58,13.0,25.0,75,0.00,,,0.02,564.000000,,2013-02-06 22:11:00,
2013-02-06 12:21:00,72.0,64.0,30.36,ENE,58,13.0,25.0,75,0.00,,,0.02,564.000000,,2013-02-06 22:21:00,
2013-02-06 12:31:00,72.0,64.0,30.36,ENE,58,13.0,25.0,75,0.00,,,0.02,564.000000,,2013-02-06 22:31:00,
2013-02-06 12:41:00,72.0,64.0,30.36,ENE,58,13.0,25.0,75,0.00,,,0.02,564.000000,,2013-02-06 22:41:00,
2013-02-06 12:51:00,72.0,64.0,30.36,ENE,58,13.0,25.0,75,0.00,,,0.02,564.000000,,2013-02-06 22:51:00,
2013-02-06 13:11:00,74.0,63.0,30.33,ENE,66,19.0,29.0,69,0.00,,,0.02,635.000000,,2013-02-06 23:11:00,
2013-02-06 13:21:00,74.0,63.0,30.33,ENE,66,19.0,29.0,69,0.00,,,0.02,635.000000,,2013-02-06 23:21:00,
2013-02-06 13:31:00,74.0,63.0,30.33,ENE,66,19.0,29.0,69,0.00,,,0.02,635.000000,,2013-02-06 23:31:00,
2013-02-06 13:41:00,74.0,63.0,30.33,ENE,66,19.0,29.0,69,0.00,,,0.02,635.000000,,2013-02-06 23:41:00,
2013-02-06 13:51:00,74.0,63.0,30.33,ENE,66,19.0,29.0,69,0.00,,,0.02,635.000000,,2013-02-06 23:51:00,
2013-02-06 14:11:00,74.0,65.0,30.32,NE,55,17.0,27.0,73,0.00,,,0.02,1017.000000,,2013-02-07 00:11:00,
2013-02-06 14:21:00,74.0,65.0,30.32,NE,55,17.0,27.0,73,0.00,,,0.02,1017.000000,,2013-02-07 00:21:00,
2013-02-06 14:31:00,74.0,65.0,30.32,NE,55,17.0,27.0,73,0.00,,,0.02,1017.000000,,2013-02-07 00:31:00,
2013-02-06 14:41:00,74.0,65.0,30.32,NE,55,17.0,27.0,73,0.00,,,0.02,1017.000000,,2013-02-07 00:41:00,
2013-02-06 14:51:00,74.0,65.0,30.32,NE,55,17.0,27.0,73,0.00,,,0.02,1017.000000,,2013-02-07 00:51:00,
2013-02-06 15:11:00,76.0,65.0,30.31,ENE,75,16.0,27.0,70,0.00,,,0.02,844.000000,,2013-02-07 01:11:00,
2013-02-06 15:21:00,76.0,65.0,30.31,ENE,75,16.0,27.0,70,0.00,,,0.02,844.000000,,2013-02-07 01:21:00,
2013-02-06 15:31:00,76.0,65.0,30.31,ENE,75,16.0,27.0,70,0.00,,,0.02,844.000000,,2013-02-07 01:31:00,
2013-02-06 15:41:00,76.0,65.0,30.31,ENE,75,16.0,27.0,70,0.00,,,0.02,844.000000,,2013-02-07 01:41:00,
2013-02-06 15:52:00,76.0,65.0,30.31,ENE,75,16.0,27.0,70,0.00,,,0.02,844.000000,,2013-02-07 01:52:00,
2013-02-06 16:21:00,75.0,65.0,30.30,NE,50,12.0,28.0,70,0.00,,,0.02,892.000000,,2013-02-07 02:21:00,
2013-02-06 16:31:00,75.0,65.0,30.30,NE,50,12.0,28.0,70,0.00,,,0.02,892.000000,,2013-02-07 02:31:00,
2013-02-06 16:41:00,75.0,65.0,30.30,NE,50,12.0,28.0,70,0.00,,,0.02,892.000000,,2013-02-07 02:41:00,
2013-02-06 16:51:00,75.0,65.0,30.30,NE,50,12.0,28.0,70,0.00,,,0.02,892.000000,,2013-02-07 02:51:00,
2013-02-06 17:11:00,72.0,64.0,30.32,ENE,76,15.0,25.0,77,0.00,,,0.02,691.000000,,2013-02-07 03:11:00,
2013-02-06 17:21:00,72.0,64.0,30.32,ENE,76,15.0,25.0,77,0.00,,,0.02,691.000000,,2013-02-07 03:21:00,
2013-02-06 17:31:00,72.0,64.0,30.32,ENE,76,15.0,25.0,77,0.00,,,0.02,691.000000,,2013-02-07 03:31:00,
2013-02-06 17:41:00,72.0,64.0,30.32,ENE,76,15.0,25.0,77,0.00,,,0.02,691.000000,,2013-02-07 03:41:00,
2013-02-06 17:51:00,72.0,64.0,30.32,ENE,76,15.0,25.0,77,0.00,,,0.02,691.000000,,2013-02-07 03:51:00,
2013-02-06 18:11:00,73.0,65.0,30.32,ENE,74,16.0,28.0,75,0.00,,,0.02,400.000000,,2013-02-07 04:11:00,
2013-02-06 18:22:00,73.0,65.0,30.32,ENE,74,16.0,28.0,75,0.00,,,0.02,400.000000,,2013-02-07 04:22:00,
2013-02-06 18:31:00,73.0,65.0,30.32,ENE,74,16.0,28.0,75,0.00,,,0.02,400.000000,,2013-02-07 04:31:00,
2013-02-06 18:41:00,73.0,65.0,30.32,ENE,74,16.0,28.0,75,0.00,,,0.02,400.000000,,2013-02-07 04:41:00,
2013-02-06 18:52:00,73.0,65.0,30.32,ENE,74,16.0,28.0,75,0.00,,,0.02,400.000000,,2013-02-07 04:52:00,
2013-02-06 19:11:00,72.0,65.0,30.34,ENE,75,19.0,31.0,79,0.00,,,0.02,160.000000,,2013-02-07 05:11:00,
2013-02-06 19:21:00,72.0,65.0,30.34,ENE,75,19.0,31.0,79,0.00,,,0.02,160.000000,,2013-02-07 05:21:00,
2013-02-06 19:32:00,72.0,65.0,30.34,ENE,75,19.0,31.0,79,0.00,,,0.02,160.000000,,2013-02-07 05:32:00,
2013-02-06 19:42:00,72.0,65.0,30.34,ENE,75,19.0,31.0,79,0.00,,,0.02,160.000000,,2013-02-07 05:42:00,
2013-02-06 19:52:00,72.0,65.0,30.34,ENE,75,19.0,31.0,79,0.00,,,0.02,160.000000,,2013-02-07 05:52:00,
2013-02-06 20:11:00,72.0,64.0,30.36,ENE,76,13.0,27.0,77,0.00,,,0.02,22.000000,,2013-02-07 06:11:00,
2013-02-06 20:22:00,72.0,64.0,30.36,ENE,76,13.0,27.0,77,0.00,,,0.02,22.000000,,2013-02-07 06:22:00,
2013-02-06 20:31:00,72.0,64.0,30.36,ENE,76,13.0,27.0,77,0.00,,,0.02,22.000000,,2013-02-07 06:31:00,
2013-02-06 20:43:00,72.0,64.0,30.36,ENE,76,13.0,27.0,77,0.00,,,0.02,22.000000,,2013-02-07 06:43:00,
2013-02-06 20:52:00,72.0,64.0,30.36,ENE,76,13.0,27.0,77,0.00,,,0.02,22.000000,,2013-02-07 06:52:00,
2013-02-06 21:22:00,71.0,66.0,30.35,East,89,18.0,25.0,83,0.00,,,0.02,0.000000,,2013-02-07 07:22:00,
2013-02-06 21:31:00,71.0,66.0,30.35,East,89,18.0,25.0,83,0.00,,,0.02,0.000000,,2013-02-07 07:31:00,
2013-02-06 21:41:00,71.0,66.0,30.35,East,89,18.0,25.0,83,0.00,,,0.02,0.000000,,2013-02-07 07:41:00,
2013-02-06 21:52:00,71.0,66.0,30.35,East,89,18.0,25.0,83,0.00,,,0.02,0.000000,,2013-02-07 07:52:00,
2013-02-06 22:11:00,71.0,65.0,30.36,ENE,77,15.0,30.0,80,0.00,,,0.02,0.000000,,2013-02-07 08:11:00,
2013-02-06 22:21:00,71.0,65.0,30.36,ENE,77,15.0,30.0,80,0.00,,,0.02,0.000000,,2013-02-07 08:21:00,
2013-02-06 22:31:00,71.0,65.0,30.36,ENE,77,15.0,30.0,80,0.00,,,0.02,0.000000,,2013-02-07 08:31:00,
2013-02-06 22:41:00,71.0,65.0,30.36,ENE,77,15.0,30.0,80,0.00,,,0.02,0.000000,,2013-02-07 08:41:00,
2013-02-06 22:52:00,71.0,65.0,30.36,ENE,77,15.0,30.0,80,0.00,,,0.02,0.000000,,2013-02-07 08:52:00,
2013-02-06 23:21:00,69.0,63.0,30.36,ENE,73,15.0,27.0,80,0.00,,,0.02,0.000000,,2013-02-07 09:21:00,
2013-02-06 23:31:00,69.0,63.0,30.36,ENE,73,15.0,27.0,80,0.00,,,0.02,0.000000,,2013-02-07 09:31:00,
2013-02-06 23:41:00,69.0,63.0,30.36,ENE,73,15.0,27.0,80,0.00,,,0.02,0.000000,,2013-02-07 09:41:00,
2013-02-06 23:51:00,69.0,63.0,30.36,ENE,73,15.0,27.0,80,0.00,,,0.02,0.000000,,2013-02-07 09:51:00,